Mountain View (El Paso), TX

6:04 PM MDT on March 25, 2017 (GMT -0600)
MUP391 | | Change Station
Active Advisory: Fire Weather Watch

Elev 3903 ft 31.87 °N, 106.40 °W | Updated 34 minutes ago

Clear
Clear
83.0 °F
Feels Like 83.0 °F
N
3.0
Wind Variable Wind from West
Gusts 6.0 mph

Today
High -- | Low -- °F
--% Chance of Precip.
Yesterday
High -- | Low -- °F
Precip. -- in
Pressure 29.72 in
Visibility 7.0 miles
Clouds Clear
Dew Point Not available.
Humidity Not available.
Rainfall in
Snow Depth Not available.
7:02 AM 7:20 PM
Waning Crescent, 6% visible
METAR KBIF 252358Z AUTO 22011KT 7SM CLR 26/M14 A2985 RMK AO2 LTG DSNT NW SLP064 T02591145 10269 20186 57030 $
Pressure 29.72 in
Visibility 7.0 miles
Clouds Clear
Dew Point Not available.
Humidity Not available.
Rainfall in
Snow Depth Not available.
7:02 AM 7:20 PM
Waning Crescent, 6% visible
METAR KBIF 252358Z AUTO 22011KT 7SM CLR 26/M14 A2985 RMK AO2 LTG DSNT NW SLP064 T02591145 10269 20186 57030 $

Get Your Daily Forecast Email!

Thanks for signing up!

Be on the lookout for a verification email in your inbox.

You'll start receiving severe weather alerts in your inbox..

×

10-Day Weather Forecast

Almanac

Astronomy

Mar. 25, 2017 Rise Set
Actual Time
Civil Twilight
Nautical Twilight
Astronomical Twilight
Moon
Length of Visible Light
Length of Day
Tomorrow will be .
, % of the Moon is Illuminated

Today's Extremes

State Highs State Lows

Community

WunderPhotos

Upload Photos

1,962,540 photos uploaded!

WunderBlog® & News

Nearby

Air Quality

  Air Quality AQ Index Pollutant
Not available.

Snow Depth

Station Depth Elevation

Earthquake Activity

City Distance Mag. Time & Date
Minimum magnitude displayed is 2.5.

Earthquake Activity

City Distance Mag. Time & Date
Minimum magnitude displayed is 2.5.

Coastal Water Temperatures

Place Temperature

Stations

Nearby Weather Stations

Station Location Temp. Windchill Dew Point Humidity Wind Precip. Elev Updated Type
                   

Watches & Warnings

Fire Weather Watch
Issued: 2:14 PM MDT Mar. 25, 2017 – National Weather Service

... Fire Weather Watch remains in effect from Sunday afternoon
through Sunday evening for strong winds and low relative
humidities for fire weather zones 055, 056, 111, and 112...

* affected area... fire weather zone 111. Fire weather zone 112.
Fire weather zone 055. Fire weather zone 056.

* Wind... west around 20 mph.

* Humidity... 9 to 15 percent.

* Highest threat... is located south of a line from Deming to
Alamogordo.

* Impacts... any fires that develop will likely spread rapidly.
Outdoor burning is not recommended.

Precautionary/preparedness actions...

A Fire Weather Watch means that critical fire weather conditions
are forecast to occur. Listen for later forecasts and possible
red flag warnings.


26